sensor_id;sensor_type;location;lat;lon;timestamp;P1;durP1;ratioP1;P2;durP2;ratioP2
35959;SDS011;22043;50.970;7.192;2022-07-23T00:00:59;24.55;;;14.40;;
35959;SDS011;22043;50.970;7.192;2022-07-23T00:03:24;19.60;;;12.70;;
35959;SDS011;22043;50.970;7.192;2022-07-23T00:05:50;20.73;;;12.32;;
35959;SDS011;22043;50.970;7.192;2022-07-23T00:08:16;20.05;;;12.63;;
35959;SDS011;22043;50.970;7.192;2022-07-23T00:10:41;21.17;;;12.88;;
35959;SDS011;22043;50.970;7.192;2022-07-23T00:13:07;21.58;;;12.73;;
35959;SDS011;22043;50.970;7.192;2022-07-23T00:15:33;22.05;;;13.38;;
35959;SDS011;22043;50.970;7.192;2022-07-23T00:17:59;23.13;;;13.07;;
35959;SDS011;22043;50.970;7.192;2022-07-23T00:20:24;20.75;;;13.48;;
35959;SDS011;22043;50.970;7.192;2022-07-23T00:22:51;18.67;;;12.13;;
35959;SDS011;22043;50.970;7.192;2022-07-23T00:25:19;22.52;;;13.35;;
35959;SDS011;22043;50.970;7.192;2022-07-23T00:27:46;22.60;;;13.02;;
35959;SDS011;22043;50.970;7.192;2022-07-23T00:30:12;21.63;;;13.00;;
35959;SDS011;22043;50.970;7.192;2022-07-23T00:32:48;23.10;;;13.10;;
35959;SDS011;22043;50.970;7.192;2022-07-23T00:35:15;21.33;;;13.77;;
35959;SDS011;22043;50.970;7.192;2022-07-23T00:37:44;20.52;;;12.43;;
35959;SDS011;22043;50.970;7.192;2022-07-23T00:40:10;21.50;;;13.70;;
35959;SDS011;22043;50.970;7.192;2022-07-23T00:42:36;20.60;;;12.63;;
35959;SDS011;22043;50.970;7.192;2022-07-23T00:45:02;21.58;;;12.35;;
35959;SDS011;22043;50.970;7.192;2022-07-23T00:47:28;22.27;;;12.93;;
35959;SDS011;22043;50.970;7.192;2022-07-23T00:49:54;19.30;;;12.00;;
35959;SDS011;22043;50.970;7.192;2022-07-23T00:52:20;19.38;;;11.77;;
35959;SDS011;22043;50.970;7.192;2022-07-23T00:54:46;19.15;;;11.38;;
35959;SDS011;22043;50.970;7.192;2022-07-23T00:57:12;19.02;;;11.05;;
35959;SDS011;22043;50.970;7.192;2022-07-23T00:59:38;19.60;;;11.25;;
35959;SDS011;22043;50.970;7.192;2022-07-23T01:02:04;17.30;;;10.18;;
35959;SDS011;22043;50.970;7.192;2022-07-23T01:04:30;19.05;;;10.68;;
35959;SDS011;22043;50.970;7.192;2022-07-23T01:06:56;17.90;;;9.82;;
35959;SDS011;22043;50.970;7.192;2022-07-23T01:09:23;17.30;;;9.23;;
35959;SDS011;22043;50.970;7.192;2022-07-23T01:11:49;15.93;;;9.23;;
35959;SDS011;22043;50.970;7.192;2022-07-23T01:14:17;16.37;;;9.27;;
35959;SDS011;22043;50.970;7.192;2022-07-23T01:16:44;16.95;;;9.15;;
35959;SDS011;22043;50.970;7.192;2022-07-23T01:21:44;16.52;;;8.57;;
35959;SDS011;22043;50.970;7.192;2022-07-23T01:24:12;15.15;;;8.77;;
35959;SDS011;22043;50.970;7.192;2022-07-23T01:26:47;13.85;;;8.77;;
35959;SDS011;22043;50.970;7.192;2022-07-23T01:29:14;15.90;;;7.85;;
35959;SDS011;22043;50.970;7.192;2022-07-23T01:31:41;14.75;;;8.18;;
35959;SDS011;22043;50.970;7.192;2022-07-23T01:34:07;13.25;;;8.10;;
35959;SDS011;22043;50.970;7.192;2022-07-23T01:36:34;17.73;;;8.87;;
35959;SDS011;22043;50.970;7.192;2022-07-23T01:39:02;13.27;;;8.55;;
35959;SDS011;22043;50.970;7.192;2022-07-23T01:41:28;16.92;;;9.05;;
35959;SDS011;22043;50.970;7.192;2022-07-23T01:43:54;19.67;;;9.85;;
35959;SDS011;22043;50.970;7.192;2022-07-23T01:46:20;20.13;;;9.43;;
35959;SDS011;22043;50.970;7.192;2022-07-23T01:48:48;15.02;;;8.73;;
35959;SDS011;22043;50.970;7.192;2022-07-23T01:51:27;15.25;;;9.57;;
35959;SDS011;22043;50.970;7.192;2022-07-23T01:54:01;20.45;;;10.35;;
35959;SDS011;22043;50.970;7.192;2022-07-23T01:56:26;14.90;;;9.77;;
35959;SDS011;22043;50.970;7.192;2022-07-23T01:58:52;15.63;;;9.45;;
35959;SDS011;22043;50.970;7.192;2022-07-23T02:01:19;17.55;;;9.90;;
35959;SDS011;22043;50.970;7.192;2022-07-23T02:03:44;18.73;;;10.23;;
35959;SDS011;22043;50.970;7.192;2022-07-23T02:06:10;20.38;;;11.27;;
35959;SDS011;22043;50.970;7.192;2022-07-23T02:08:36;18.73;;;11.00;;
35959;SDS011;22043;50.970;7.192;2022-07-23T02:11:02;19.27;;;11.25;;
35959;SDS011;22043;50.970;7.192;2022-07-23T02:13:27;23.35;;;11.93;;
35959;SDS011;22043;50.970;7.192;2022-07-23T02:15:54;20.25;;;11.23;;
35959;SDS011;22043;50.970;7.192;2022-07-23T02:18:19;21.55;;;11.90;;
35959;SDS011;22043;50.970;7.192;2022-07-23T02:20:45;19.13;;;12.25;;
35959;SDS011;22043;50.970;7.192;2022-07-23T02:23:11;21.58;;;12.55;;
35959;SDS011;22043;50.970;7.192;2022-07-23T02:25:37;22.30;;;12.20;;
35959;SDS011;22043;50.970;7.192;2022-07-23T02:28:03;23.10;;;11.50;;
35959;SDS011;22043;50.970;7.192;2022-07-23T02:30:30;18.90;;;11.00;;
35959;SDS011;22043;50.970;7.192;2022-07-23T02:32:55;20.30;;;11.57;;
35959;SDS011;22043;50.970;7.192;2022-07-23T02:35:22;20.67;;;11.43;;
35959;SDS011;22043;50.970;7.192;2022-07-23T02:37:48;20.65;;;11.32;;
35959;SDS011;22043;50.970;7.192;2022-07-23T02:40:14;20.80;;;11.27;;
35959;SDS011;22043;50.970;7.192;2022-07-23T02:42:41;21.03;;;10.77;;
35959;SDS011;22043;50.970;7.192;2022-07-23T02:45:08;16.58;;;10.50;;
35959;SDS011;22043;50.970;7.192;2022-07-23T02:47:34;18.17;;;9.73;;
35959;SDS011;22043;50.970;7.192;2022-07-23T02:50:00;18.95;;;11.15;;
35959;SDS011;22043;50.970;7.192;2022-07-23T02:52:27;23.92;;;12.70;;
35959;SDS011;22043;50.970;7.192;2022-07-23T02:54:53;20.08;;;12.43;;
35959;SDS011;22043;50.970;7.192;2022-07-23T02:57:18;18.45;;;11.80;;
35959;SDS011;22043;50.970;7.192;2022-07-23T02:59:44;19.50;;;10.73;;
35959;SDS011;22043;50.970;7.192;2022-07-23T03:02:09;20.40;;;11.90;;
35959;SDS011;22043;50.970;7.192;2022-07-23T03:04:36;18.67;;;10.60;;
35959;SDS011;22043;50.970;7.192;2022-07-23T03:07:02;16.65;;;10.48;;
35959;SDS011;22043;50.970;7.192;2022-07-23T03:09:28;17.90;;;10.40;;
35959;SDS011;22043;50.970;7.192;2022-07-23T03:11:54;18.38;;;10.23;;
35959;SDS011;22043;50.970;7.192;2022-07-23T03:14:19;16.38;;;9.95;;
35959;SDS011;22043;50.970;7.192;2022-07-23T03:16:45;16.38;;;10.05;;
35959;SDS011;22043;50.970;7.192;2022-07-23T03:19:11;18.45;;;10.48;;
35959;SDS011;22043;50.970;7.192;2022-07-23T03:21:36;19.25;;;11.32;;
35959;SDS011;22043;50.970;7.192;2022-07-23T03:24:06;17.17;;;10.20;;
35959;SDS011;22043;50.970;7.192;2022-07-23T03:26:33;21.05;;;10.82;;
35959;SDS011;22043;50.970;7.192;2022-07-23T03:29:00;18.40;;;9.95;;
35959;SDS011;22043;50.970;7.192;2022-07-23T03:31:26;18.05;;;10.48;;
35959;SDS011;22043;50.970;7.192;2022-07-23T03:33:52;17.92;;;10.85;;
35959;SDS011;22043;50.970;7.192;2022-07-23T03:36:18;18.75;;;11.50;;
35959;SDS011;22043;50.970;7.192;2022-07-23T03:38:45;19.08;;;11.30;;
35959;SDS011;22043;50.970;7.192;2022-07-23T03:41:11;19.17;;;10.77;;
35959;SDS011;22043;50.970;7.192;2022-07-23T03:43:37;19.58;;;11.10;;
35959;SDS011;22043;50.970;7.192;2022-07-23T03:46:03;21.67;;;11.90;;
35959;SDS011;22043;50.970;7.192;2022-07-23T03:48:29;24.35;;;11.50;;
35959;SDS011;22043;50.970;7.192;2022-07-23T03:50:55;24.30;;;12.48;;
35959;SDS011;22043;50.970;7.192;2022-07-23T03:53:20;23.45;;;12.50;;
35959;SDS011;22043;50.970;7.192;2022-07-23T03:55:46;22.35;;;11.95;;
35959;SDS011;22043;50.970;7.192;2022-07-23T03:58:12;21.88;;;12.40;;
35959;SDS011;22043;50.970;7.192;2022-07-23T04:00:38;22.45;;;12.00;;
35959;SDS011;22043;50.970;7.192;2022-07-23T04:03:04;20.70;;;11.98;;
35959;SDS011;22043;50.970;7.192;2022-07-23T04:05:31;23.48;;;12.90;;
35959;SDS011;22043;50.970;7.192;2022-07-23T04:08:04;24.10;;;13.05;;
35959;SDS011;22043;50.970;7.192;2022-07-23T04:10:31;22.40;;;12.13;;
35959;SDS011;22043;50.970;7.192;2022-07-23T04:12:57;22.80;;;12.77;;
35959;SDS011;22043;50.970;7.192;2022-07-23T04:15:22;22.23;;;11.52;;
35959;SDS011;22043;50.970;7.192;2022-07-23T04:17:48;18.27;;;10.70;;
35959;SDS011;22043;50.970;7.192;2022-07-23T04:20:17;23.00;;;11.20;;
35959;SDS011;22043;50.970;7.192;2022-07-23T04:22:50;21.52;;;12.50;;
35959;SDS011;22043;50.970;7.192;2022-07-23T04:25:16;22.83;;;12.57;;
35959;SDS011;22043;50.970;7.192;2022-07-23T04:27:42;24.88;;;12.30;;
35959;SDS011;22043;50.970;7.192;2022-07-23T04:30:08;22.45;;;12.13;;
35959;SDS011;22043;50.970;7.192;2022-07-23T04:32:34;21.17;;;12.02;;
35959;SDS011;22043;50.970;7.192;2022-07-23T04:35:02;24.52;;;12.32;;
35959;SDS011;22043;50.970;7.192;2022-07-23T04:37:28;26.50;;;13.25;;
35959;SDS011;22043;50.970;7.192;2022-07-23T04:39:54;21.20;;;11.93;;
35959;SDS011;22043;50.970;7.192;2022-07-23T04:42:21;20.75;;;12.57;;
35959;SDS011;22043;50.970;7.192;2022-07-23T04:44:47;22.20;;;11.85;;
35959;SDS011;22043;50.970;7.192;2022-07-23T04:47:12;20.63;;;11.35;;
35959;SDS011;22043;50.970;7.192;2022-07-23T04:52:06;21.27;;;11.35;;
35959;SDS011;22043;50.970;7.192;2022-07-23T04:54:32;21.80;;;12.82;;
35959;SDS011;22043;50.970;7.192;2022-07-23T04:56:57;23.50;;;12.68;;
35959;SDS011;22043;50.970;7.192;2022-07-23T04:59:23;20.42;;;11.70;;
35959;SDS011;22043;50.970;7.192;2022-07-23T05:01:55;20.52;;;11.07;;
35959;SDS011;22043;50.970;7.192;2022-07-23T05:04:21;21.67;;;12.15;;
35959;SDS011;22043;50.970;7.192;2022-07-23T05:09:14;26.58;;;11.52;;
35959;SDS011;22043;50.970;7.192;2022-07-23T05:11:40;23.23;;;11.80;;
35959;SDS011;22043;50.970;7.192;2022-07-23T05:14:06;20.63;;;12.40;;
35959;SDS011;22043;50.970;7.192;2022-07-23T05:16:32;21.55;;;11.82;;
35959;SDS011;22043;50.970;7.192;2022-07-23T05:19:04;22.17;;;12.75;;
35959;SDS011;22043;50.970;7.192;2022-07-23T05:21:34;23.20;;;12.70;;
35959;SDS011;22043;50.970;7.192;2022-07-23T05:23:59;23.15;;;12.95;;
35959;SDS011;22043;50.970;7.192;2022-07-23T05:26:25;22.30;;;13.05;;
35959;SDS011;22043;50.970;7.192;2022-07-23T05:28:51;24.17;;;13.98;;
35959;SDS011;22043;50.970;7.192;2022-07-23T05:31:18;24.33;;;12.27;;
35959;SDS011;22043;50.970;7.192;2022-07-23T05:33:45;20.00;;;12.65;;
35959;SDS011;22043;50.970;7.192;2022-07-23T05:36:12;23.20;;;12.27;;
35959;SDS011;22043;50.970;7.192;2022-07-23T05:38:55;24.40;;;12.75;;
35959;SDS011;22043;50.970;7.192;2022-07-23T05:41:21;22.30;;;12.43;;
35959;SDS011;22043;50.970;7.192;2022-07-23T05:43:47;19.80;;;11.63;;
35959;SDS011;22043;50.970;7.192;2022-07-23T05:46:14;20.90;;;11.90;;
35959;SDS011;22043;50.970;7.192;2022-07-23T05:48:41;22.38;;;12.27;;
35959;SDS011;22043;50.970;7.192;2022-07-23T05:51:23;22.60;;;12.13;;
35959;SDS011;22043;50.970;7.192;2022-07-23T05:53:50;18.92;;;10.93;;
35959;SDS011;22043;50.970;7.192;2022-07-23T05:56:19;19.00;;;11.70;;
35959;SDS011;22043;50.970;7.192;2022-07-23T05:58:45;21.45;;;12.43;;
35959;SDS011;22043;50.970;7.192;2022-07-23T06:01:13;21.73;;;11.50;;
35959;SDS011;22043;50.970;7.192;2022-07-23T06:03:47;19.45;;;11.15;;
35959;SDS011;22043;50.970;7.192;2022-07-23T06:06:13;19.20;;;10.82;;
35959;SDS011;22043;50.970;7.192;2022-07-23T06:08:39;20.35;;;11.13;;
35959;SDS011;22043;50.970;7.192;2022-07-23T06:11:06;19.27;;;10.35;;
35959;SDS011;22043;50.970;7.192;2022-07-23T06:13:33;20.58;;;10.50;;
35959;SDS011;22043;50.970;7.192;2022-07-23T06:15:58;22.58;;;10.93;;
35959;SDS011;22043;50.970;7.192;2022-07-23T06:18:24;20.02;;;10.70;;
35959;SDS011;22043;50.970;7.192;2022-07-23T06:20:50;23.17;;;12.38;;
35959;SDS011;22043;50.970;7.192;2022-07-23T06:23:16;18.60;;;11.52;;
35959;SDS011;22043;50.970;7.192;2022-07-23T06:25:41;18.35;;;10.52;;
35959;SDS011;22043;50.970;7.192;2022-07-23T06:28:08;17.33;;;9.95;;
35959;SDS011;22043;50.970;7.192;2022-07-23T06:30:34;19.95;;;10.43;;
35959;SDS011;22043;50.970;7.192;2022-07-23T06:33:02;18.23;;;10.32;;
35959;SDS011;22043;50.970;7.192;2022-07-23T06:35:28;15.95;;;9.57;;
35959;SDS011;22043;50.970;7.192;2022-07-23T06:37:54;19.08;;;9.85;;
35959;SDS011;22043;50.970;7.192;2022-07-23T06:40:20;18.90;;;9.75;;
35959;SDS011;22043;50.970;7.192;2022-07-23T06:42:46;20.02;;;9.93;;
35959;SDS011;22043;50.970;7.192;2022-07-23T06:45:16;19.17;;;9.82;;
35959;SDS011;22043;50.970;7.192;2022-07-23T06:47:42;15.85;;;9.20;;
35959;SDS011;22043;50.970;7.192;2022-07-23T06:50:08;14.90;;;9.23;;
35959;SDS011;22043;50.970;7.192;2022-07-23T06:52:34;17.90;;;9.45;;
35959;SDS011;22043;50.970;7.192;2022-07-23T06:55:00;17.00;;;9.07;;
35959;SDS011;22043;50.970;7.192;2022-07-23T06:57:26;17.42;;;9.63;;
35959;SDS011;22043;50.970;7.192;2022-07-23T06:59:51;14.50;;;8.77;;
35959;SDS011;22043;50.970;7.192;2022-07-23T07:02:18;19.10;;;9.82;;
35959;SDS011;22043;50.970;7.192;2022-07-23T07:04:44;14.80;;;8.07;;
35959;SDS011;22043;50.970;7.192;2022-07-23T07:07:10;21.55;;;8.80;;
35959;SDS011;22043;50.970;7.192;2022-07-23T07:09:37;14.68;;;8.48;;
35959;SDS011;22043;50.970;7.192;2022-07-23T07:12:03;15.90;;;8.65;;
35959;SDS011;22043;50.970;7.192;2022-07-23T07:14:29;10.68;;;6.68;;
35959;SDS011;22043;50.970;7.192;2022-07-23T07:16:54;11.02;;;6.95;;
35959;SDS011;22043;50.970;7.192;2022-07-23T07:19:20;12.98;;;7.38;;
35959;SDS011;22043;50.970;7.192;2022-07-23T07:21:46;16.77;;;6.65;;
35959;SDS011;22043;50.970;7.192;2022-07-23T07:24:11;14.93;;;7.38;;
35959;SDS011;22043;50.970;7.192;2022-07-23T07:26:37;12.77;;;6.47;;
35959;SDS011;22043;50.970;7.192;2022-07-23T07:29:04;13.23;;;6.60;;
35959;SDS011;22043;50.970;7.192;2022-07-23T07:31:31;13.82;;;7.20;;
35959;SDS011;22043;50.970;7.192;2022-07-23T07:33:57;14.02;;;6.55;;
35959;SDS011;22043;50.970;7.192;2022-07-23T07:36:23;12.55;;;6.40;;
35959;SDS011;22043;50.970;7.192;2022-07-23T07:38:49;14.00;;;6.50;;
35959;SDS011;22043;50.970;7.192;2022-07-23T07:41:14;12.57;;;7.15;;
35959;SDS011;22043;50.970;7.192;2022-07-23T07:43:40;12.10;;;6.53;;
35959;SDS011;22043;50.970;7.192;2022-07-23T07:46:06;10.40;;;6.57;;
35959;SDS011;22043;50.970;7.192;2022-07-23T07:48:35;14.50;;;6.82;;
35959;SDS011;22043;50.970;7.192;2022-07-23T07:51:02;12.87;;;6.40;;
35959;SDS011;22043;50.970;7.192;2022-07-23T07:53:28;12.48;;;6.70;;
35959;SDS011;22043;50.970;7.192;2022-07-23T07:55:54;11.77;;;6.63;;
35959;SDS011;22043;50.970;7.192;2022-07-23T07:58:20;13.73;;;7.82;;
35959;SDS011;22043;50.970;7.192;2022-07-23T08:00:45;13.85;;;6.90;;
35959;SDS011;22043;50.970;7.192;2022-07-23T08:03:11;13.45;;;7.40;;
35959;SDS011;22043;50.970;7.192;2022-07-23T08:05:37;14.85;;;7.03;;
35959;SDS011;22043;50.970;7.192;2022-07-23T08:08:03;13.10;;;7.70;;
35959;SDS011;22043;50.970;7.192;2022-07-23T08:10:28;11.57;;;7.43;;
35959;SDS011;22043;50.970;7.192;2022-07-23T08:12:57;13.15;;;6.90;;
35959;SDS011;22043;50.970;7.192;2022-07-23T08:15:24;13.88;;;6.90;;
35959;SDS011;22043;50.970;7.192;2022-07-23T08:17:51;17.83;;;7.50;;
35959;SDS011;22043;50.970;7.192;2022-07-23T08:20:18;14.18;;;6.78;;
35959;SDS011;22043;50.970;7.192;2022-07-23T08:22:46;14.15;;;8.15;;
35959;SDS011;22043;50.970;7.192;2022-07-23T08:25:32;15.88;;;7.47;;
35959;SDS011;22043;50.970;7.192;2022-07-23T08:28:00;15.35;;;7.03;;
35959;SDS011;22043;50.970;7.192;2022-07-23T08:30:28;14.02;;;7.05;;
35959;SDS011;22043;50.970;7.192;2022-07-23T08:32:56;15.68;;;7.68;;
35959;SDS011;22043;50.970;7.192;2022-07-23T08:35:28;13.40;;;7.43;;
35959;SDS011;22043;50.970;7.192;2022-07-23T08:38:09;12.88;;;7.35;;
35959;SDS011;22043;50.970;7.192;2022-07-23T08:40:36;13.05;;;7.00;;
35959;SDS011;22043;50.970;7.192;2022-07-23T08:43:04;12.15;;;7.40;;
35959;SDS011;22043;50.970;7.192;2022-07-23T08:45:34;12.02;;;6.18;;
35959;SDS011;22043;50.970;7.192;2022-07-23T08:48:03;12.98;;;6.88;;
35959;SDS011;22043;50.970;7.192;2022-07-23T08:50:32;17.42;;;5.88;;
35959;SDS011;22043;50.970;7.192;2022-07-23T08:52:59;11.47;;;5.67;;
35959;SDS011;22043;50.970;7.192;2022-07-23T08:55:26;11.27;;;4.67;;
35959;SDS011;22043;50.970;7.192;2022-07-23T08:57:52;11.10;;;6.45;;
35959;SDS011;22043;50.970;7.192;2022-07-23T09:00:19;11.15;;;6.80;;
35959;SDS011;22043;50.970;7.192;2022-07-23T09:02:45;11.35;;;6.78;;
35959;SDS011;22043;50.970;7.192;2022-07-23T09:05:12;11.68;;;6.60;;
35959;SDS011;22043;50.970;7.192;2022-07-23T09:08:02;12.90;;;6.20;;
35959;SDS011;22043;50.970;7.192;2022-07-23T09:13:22;10.25;;;5.90;;
35959;SDS011;22043;50.970;7.192;2022-07-23T09:15:56;17.02;;;6.65;;
35959;SDS011;22043;50.970;7.192;2022-07-23T09:18:40;8.63;;;5.20;;
35959;SDS011;22043;50.970;7.192;2022-07-23T09:21:21;12.48;;;6.07;;
35959;SDS011;22043;50.970;7.192;2022-07-23T09:24:04;10.17;;;5.43;;
35959;SDS011;22043;50.970;7.192;2022-07-23T09:26:37;13.02;;;6.95;;
35959;SDS011;22043;50.970;7.192;2022-07-23T09:29:07;10.85;;;6.00;;
35959;SDS011;22043;50.970;7.192;2022-07-23T09:31:52;11.10;;;4.97;;
35959;SDS011;22043;50.970;7.192;2022-07-23T09:34:27;10.13;;;5.45;;
35959;SDS011;22043;50.970;7.192;2022-07-23T09:40:03;9.90;;;6.00;;
35959;SDS011;22043;50.970;7.192;2022-07-23T09:42:30;7.97;;;5.10;;
35959;SDS011;22043;50.970;7.192;2022-07-23T09:44:56;10.23;;;5.72;;
35959;SDS011;22043;50.970;7.192;2022-07-23T09:47:24;10.93;;;5.32;;
35959;SDS011;22043;50.970;7.192;2022-07-23T09:52:29;8.27;;;5.63;;
35959;SDS011;22043;50.970;7.192;2022-07-23T09:54:58;10.10;;;4.93;;
35959;SDS011;22043;50.970;7.192;2022-07-23T09:57:28;9.85;;;5.18;;
35959;SDS011;22043;50.970;7.192;2022-07-23T09:59:57;8.85;;;4.85;;
35959;SDS011;22043;50.970;7.192;2022-07-23T10:02:25;10.13;;;5.40;;
35959;SDS011;22043;50.970;7.192;2022-07-23T10:05:15;7.95;;;4.72;;
35959;SDS011;22043;50.970;7.192;2022-07-23T10:08:01;9.88;;;4.82;;
35959;SDS011;22043;50.970;7.192;2022-07-23T10:10:46;7.93;;;4.72;;
35959;SDS011;22043;50.970;7.192;2022-07-23T10:13:38;9.00;;;4.80;;
35959;SDS011;22043;50.970;7.192;2022-07-23T10:16:15;9.82;;;4.88;;
35959;SDS011;22043;50.970;7.192;2022-07-23T10:18:41;7.82;;;4.95;;
35959;SDS011;22043;50.970;7.192;2022-07-23T10:21:08;10.32;;;5.00;;
35959;SDS011;22043;50.970;7.192;2022-07-23T10:23:39;10.18;;;5.65;;
35959;SDS011;22043;50.970;7.192;2022-07-23T10:26:24;9.43;;;5.07;;
35959;SDS011;22043;50.970;7.192;2022-07-23T10:29:07;8.38;;;4.78;;
35959;SDS011;22043;50.970;7.192;2022-07-23T10:32:00;7.95;;;4.97;;
35959;SDS011;22043;50.970;7.192;2022-07-23T10:37:17;9.07;;;5.10;;
35959;SDS011;22043;50.970;7.192;2022-07-23T10:40:08;9.60;;;4.78;;
35959;SDS011;22043;50.970;7.192;2022-07-23T10:42:38;9.02;;;4.78;;
35959;SDS011;22043;50.970;7.192;2022-07-23T10:47:53;7.72;;;3.40;;
35959;SDS011;22043;50.970;7.192;2022-07-23T10:50:26;5.95;;;2.95;;
35959;SDS011;22043;50.970;7.192;2022-07-23T10:57:57;6.20;;;3.60;;
35959;SDS011;22043;50.970;7.192;2022-07-23T11:00:23;7.43;;;4.20;;
35959;SDS011;22043;50.970;7.192;2022-07-23T11:02:51;7.65;;;4.65;;
35959;SDS011;22043;50.970;7.192;2022-07-23T11:05:19;9.25;;;5.25;;
35959;SDS011;22043;50.970;7.192;2022-07-23T11:10:37;5.65;;;3.42;;
35959;SDS011;22043;50.970;7.192;2022-07-23T11:13:38;5.30;;;3.45;;
35959;SDS011;22043;50.970;7.192;2022-07-23T11:31:51;6.30;;;3.63;;
35959;SDS011;22043;50.970;7.192;2022-07-23T11:34:41;5.97;;;3.13;;
35959;SDS011;22043;50.970;7.192;2022-07-23T11:37:11;6.22;;;3.35;;
35959;SDS011;22043;50.970;7.192;2022-07-23T11:39:52;5.53;;;3.17;;
35959;SDS011;22043;50.970;7.192;2022-07-23T11:42:20;5.20;;;2.88;;
35959;SDS011;22043;50.970;7.192;2022-07-23T11:44:46;4.13;;;2.70;;
35959;SDS011;22043;50.970;7.192;2022-07-23T11:47:13;6.22;;;3.45;;
35959;SDS011;22043;50.970;7.192;2022-07-23T11:49:39;6.78;;;2.42;;
35959;SDS011;22043;50.970;7.192;2022-07-23T11:52:16;3.47;;;1.98;;
35959;SDS011;22043;50.970;7.192;2022-07-23T11:57:19;4.22;;;2.55;;
35959;SDS011;22043;50.970;7.192;2022-07-23T11:59:47;8.27;;;3.38;;
35959;SDS011;22043;50.970;7.192;2022-07-23T12:02:16;4.55;;;3.10;;
35959;SDS011;22043;50.970;7.192;2022-07-23T12:04:45;6.90;;;3.88;;
35959;SDS011;22043;50.970;7.192;2022-07-23T12:09:59;4.70;;;3.40;;
35959;SDS011;22043;50.970;7.192;2022-07-23T12:12:37;5.82;;;3.42;;
35959;SDS011;22043;50.970;7.192;2022-07-23T12:15:04;4.80;;;3.03;;
35959;SDS011;22043;50.970;7.192;2022-07-23T12:17:32;4.88;;;3.35;;
35959;SDS011;22043;50.970;7.192;2022-07-23T12:19:59;4.25;;;3.20;;
35959;SDS011;22043;50.970;7.192;2022-07-23T12:22:33;3.95;;;2.90;;
35959;SDS011;22043;50.970;7.192;2022-07-23T12:27:32;4.97;;;3.13;;
35959;SDS011;22043;50.970;7.192;2022-07-23T12:29:59;5.15;;;3.05;;
35959;SDS011;22043;50.970;7.192;2022-07-23T12:32:42;4.57;;;2.97;;
35959;SDS011;22043;50.970;7.192;2022-07-23T12:35:09;7.15;;;3.17;;
35959;SDS011;22043;50.970;7.192;2022-07-23T12:37:36;5.45;;;3.10;;
35959;SDS011;22043;50.970;7.192;2022-07-23T12:40:20;3.95;;;2.72;;
35959;SDS011;22043;50.970;7.192;2022-07-23T12:42:47;4.93;;;2.70;;
35959;SDS011;22043;50.970;7.192;2022-07-23T12:45:14;6.97;;;3.50;;
35959;SDS011;22043;50.970;7.192;2022-07-23T12:47:59;5.15;;;3.60;;
35959;SDS011;22043;50.970;7.192;2022-07-23T12:53:09;6.80;;;4.03;;
35959;SDS011;22043;50.970;7.192;2022-07-23T12:55:43;7.25;;;4.13;;
35959;SDS011;22043;50.970;7.192;2022-07-23T13:00:52;5.25;;;3.63;;
35959;SDS011;22043;50.970;7.192;2022-07-23T13:03:27;7.18;;;4.15;;
35959;SDS011;22043;50.970;7.192;2022-07-23T13:05:54;7.55;;;4.53;;
35959;SDS011;22043;50.970;7.192;2022-07-23T13:08:21;6.75;;;4.70;;
35959;SDS011;22043;50.970;7.192;2022-07-23T13:10:47;7.57;;;4.95;;
35959;SDS011;22043;50.970;7.192;2022-07-23T13:13:14;6.97;;;4.75;;
35959;SDS011;22043;50.970;7.192;2022-07-23T13:15:41;9.00;;;4.80;;
35959;SDS011;22043;50.970;7.192;2022-07-23T13:18:07;6.85;;;4.85;;
35959;SDS011;22043;50.970;7.192;2022-07-23T13:20:33;5.90;;;4.10;;
35959;SDS011;22043;50.970;7.192;2022-07-23T13:22:59;8.32;;;5.07;;
35959;SDS011;22043;50.970;7.192;2022-07-23T13:25:26;7.65;;;5.22;;
35959;SDS011;22043;50.970;7.192;2022-07-23T13:27:52;7.88;;;5.10;;
35959;SDS011;22043;50.970;7.192;2022-07-23T13:30:17;7.80;;;5.00;;
35959;SDS011;22043;50.970;7.192;2022-07-23T13:32:43;8.32;;;5.18;;
35959;SDS011;22043;50.970;7.192;2022-07-23T13:35:09;10.48;;;5.25;;
35959;SDS011;22043;50.970;7.192;2022-07-23T13:37:35;8.85;;;5.40;;
35959;SDS011;22043;50.970;7.192;2022-07-23T13:40:01;7.43;;;5.50;;
35959;SDS011;22043;50.970;7.192;2022-07-23T13:42:27;13.10;;;5.57;;
35959;SDS011;22043;50.970;7.192;2022-07-23T13:44:52;8.70;;;4.70;;
35959;SDS011;22043;50.970;7.192;2022-07-23T13:47:18;8.65;;;4.13;;
35959;SDS011;22043;50.970;7.192;2022-07-23T13:49:44;6.07;;;4.05;;
35959;SDS011;22043;50.970;7.192;2022-07-23T13:52:10;9.73;;;4.72;;
35959;SDS011;22043;50.970;7.192;2022-07-23T13:54:36;7.45;;;5.32;;
35959;SDS011;22043;50.970;7.192;2022-07-23T13:57:02;8.50;;;5.20;;
35959;SDS011;22043;50.970;7.192;2022-07-23T13:59:28;8.98;;;5.80;;
35959;SDS011;22043;50.970;7.192;2022-07-23T14:01:54;8.52;;;5.32;;
35959;SDS011;22043;50.970;7.192;2022-07-23T14:04:20;10.13;;;5.50;;
35959;SDS011;22043;50.970;7.192;2022-07-23T14:06:46;6.65;;;4.57;;
35959;SDS011;22043;50.970;7.192;2022-07-23T14:09:12;8.75;;;4.97;;
35959;SDS011;22043;50.970;7.192;2022-07-23T14:11:38;9.50;;;5.30;;
35959;SDS011;22043;50.970;7.192;2022-07-23T14:14:04;6.32;;;4.43;;
35959;SDS011;22043;50.970;7.192;2022-07-23T14:16:30;8.85;;;4.90;;
35959;SDS011;22043;50.970;7.192;2022-07-23T14:18:56;8.82;;;4.47;;
35959;SDS011;22043;50.970;7.192;2022-07-23T14:21:22;6.63;;;4.40;;
35959;SDS011;22043;50.970;7.192;2022-07-23T14:23:47;6.75;;;3.97;;
35959;SDS011;22043;50.970;7.192;2022-07-23T14:26:13;11.30;;;4.53;;
35959;SDS011;22043;50.970;7.192;2022-07-23T14:28:39;5.82;;;3.75;;
35959;SDS011;22043;50.970;7.192;2022-07-23T14:31:05;8.48;;;4.10;;
35959;SDS011;22043;50.970;7.192;2022-07-23T14:33:31;7.28;;;4.22;;
35959;SDS011;22043;50.970;7.192;2022-07-23T14:35:56;8.32;;;5.80;;
35959;SDS011;22043;50.970;7.192;2022-07-23T14:38:24;7.75;;;4.45;;
35959;SDS011;22043;50.970;7.192;2022-07-23T14:40:49;8.35;;;4.45;;
35959;SDS011;22043;50.970;7.192;2022-07-23T14:43:15;9.23;;;5.53;;
35959;SDS011;22043;50.970;7.192;2022-07-23T14:45:41;8.45;;;4.93;;
35959;SDS011;22043;50.970;7.192;2022-07-23T14:48:07;6.38;;;4.10;;
35959;SDS011;22043;50.970;7.192;2022-07-23T14:50:33;6.13;;;4.00;;
35959;SDS011;22043;50.970;7.192;2022-07-23T14:52:59;7.20;;;4.10;;
35959;SDS011;22043;50.970;7.192;2022-07-23T14:55:25;7.05;;;3.63;;
35959;SDS011;22043;50.970;7.192;2022-07-23T14:57:51;10.73;;;5.03;;
35959;SDS011;22043;50.970;7.192;2022-07-23T15:00:16;6.88;;;4.07;;
35959;SDS011;22043;50.970;7.192;2022-07-23T15:02:42;6.43;;;4.20;;
35959;SDS011;22043;50.970;7.192;2022-07-23T15:05:08;8.90;;;4.30;;
35959;SDS011;22043;50.970;7.192;2022-07-23T15:07:34;25.77;;;12.25;;
35959;SDS011;22043;50.970;7.192;2022-07-23T15:10:00;10.15;;;6.18;;
35959;SDS011;22043;50.970;7.192;2022-07-23T15:12:25;22.58;;;10.90;;
35959;SDS011;22043;50.970;7.192;2022-07-23T15:14:51;6.38;;;3.17;;
35959;SDS011;22043;50.970;7.192;2022-07-23T15:17:17;7.85;;;4.07;;
35959;SDS011;22043;50.970;7.192;2022-07-23T15:19:43;8.45;;;3.50;;
35959;SDS011;22043;50.970;7.192;2022-07-23T15:22:08;9.50;;;3.47;;
35959;SDS011;22043;50.970;7.192;2022-07-23T15:24:34;8.73;;;3.30;;
35959;SDS011;22043;50.970;7.192;2022-07-23T15:27:00;5.47;;;3.38;;
35959;SDS011;22043;50.970;7.192;2022-07-23T15:29:25;5.32;;;3.53;;
35959;SDS011;22043;50.970;7.192;2022-07-23T15:31:51;5.55;;;2.97;;
35959;SDS011;22043;50.970;7.192;2022-07-23T15:34:16;6.28;;;3.10;;
35959;SDS011;22043;50.970;7.192;2022-07-23T15:36:42;5.97;;;3.00;;